sensor_id;sensor_type;location;lat;lon;timestamp;temperature;humidity
38090;DHT22;23904;52.322;10.232;2023-01-30T00:01:31;3.10;99.90
38090;DHT22;23904;52.322;10.232;2023-01-30T00:03:58;3.10;99.90
38090;DHT22;23904;52.322;10.232;2023-01-30T00:06:24;3.10;99.90
38090;DHT22;23904;52.322;10.232;2023-01-30T00:08:50;3.10;99.90
38090;DHT22;23904;52.322;10.232;2023-01-30T00:11:16;3.20;99.90
38090;DHT22;23904;52.322;10.232;2023-01-30T00:13:45;3.20;99.90
38090;DHT22;23904;52.322;10.232;2023-01-30T00:16:12;3.20;99.90
38090;DHT22;23904;52.322;10.232;2023-01-30T00:18:39;3.30;99.90
38090;DHT22;23904;52.322;10.232;2023-01-30T00:21:07;3.30;99.90
38090;DHT22;23904;52.322;10.232;2023-01-30T00:23:35;3.30;99.90
38090;DHT22;23904;52.322;10.232;2023-01-30T00:26:01;3.30;99.90
38090;DHT22;23904;52.322;10.232;2023-01-30T00:28:27;3.30;99.90
38090;DHT22;23904;52.322;10.232;2023-01-30T00:30:54;3.30;99.90
38090;DHT22;23904;52.322;10.232;2023-01-30T00:33:21;3.30;99.90
38090;DHT22;23904;52.322;10.232;2023-01-30T00:35:50;3.40;99.90
38090;DHT22;23904;52.322;10.232;2023-01-30T00:38:18;3.40;99.90
38090;DHT22;23904;52.322;10.232;2023-01-30T00:40:44;3.40;99.90
38090;DHT22;23904;52.322;10.232;2023-01-30T00:43:14;3.40;99.90
38090;DHT22;23904;52.322;10.232;2023-01-30T00:46:02;3.40;99.90
38090;DHT22;23904;52.322;10.232;2023-01-30T00:48:48;3.40;99.90
38090;DHT22;23904;52.322;10.232;2023-01-30T00:51:14;3.50;99.90
38090;DHT22;23904;52.322;10.232;2023-01-30T00:53:40;3.50;99.90
38090;DHT22;23904;52.322;10.232;2023-01-30T00:56:05;3.50;99.90
38090;DHT22;23904;52.322;10.232;2023-01-30T00:58:31;3.50;99.90
38090;DHT22;23904;52.322;10.232;2023-01-30T01:00:58;3.50;99.90
38090;DHT22;23904;52.322;10.232;2023-01-30T01:03:23;3.50;99.90
38090;DHT22;23904;52.322;10.232;2023-01-30T01:05:49;3.50;99.90
38090;DHT22;23904;52.322;10.232;2023-01-30T01:08:15;3.50;99.90
38090;DHT22;23904;52.322;10.232;2023-01-30T01:10:40;3.50;99.90
38090;DHT22;23904;52.322;10.232;2023-01-30T01:13:06;3.50;99.90
38090;DHT22;23904;52.322;10.232;2023-01-30T01:15:32;3.50;99.90
38090;DHT22;23904;52.322;10.232;2023-01-30T01:17:58;3.50;99.90
38090;DHT22;23904;52.322;10.232;2023-01-30T01:20:24;3.60;99.90
38090;DHT22;23904;52.322;10.232;2023-01-30T01:22:54;3.60;99.90
38090;DHT22;23904;52.322;10.232;2023-01-30T01:25:21;3.60;99.90
38090;DHT22;23904;52.322;10.232;2023-01-30T01:27:48;3.50;99.90
38090;DHT22;23904;52.322;10.232;2023-01-30T01:30:15;3.50;99.90
38090;DHT22;23904;52.322;10.232;2023-01-30T01:32:41;3.50;99.90
38090;DHT22;23904;52.322;10.232;2023-01-30T01:35:07;3.50;99.90
38090;DHT22;23904;52.322;10.232;2023-01-30T01:37:33;3.50;99.90
38090;DHT22;23904;52.322;10.232;2023-01-30T01:39:58;3.40;99.90
38090;DHT22;23904;52.322;10.232;2023-01-30T01:42:43;3.50;99.90
38090;DHT22;23904;52.322;10.232;2023-01-30T01:47:46;3.50;99.90
38090;DHT22;23904;52.322;10.232;2023-01-30T01:50:22;3.50;99.90
38090;DHT22;23904;52.322;10.232;2023-01-30T01:52:53;3.60;99.90
38090;DHT22;23904;52.322;10.232;2023-01-30T01:55:22;3.60;99.90
38090;DHT22;23904;52.322;10.232;2023-01-30T01:58:06;3.60;99.90
38090;DHT22;23904;52.322;10.232;2023-01-30T02:00:36;3.60;99.90
38090;DHT22;23904;52.322;10.232;2023-01-30T02:03:05;3.60;99.90
38090;DHT22;23904;52.322;10.232;2023-01-30T02:05:33;3.60;99.90
38090;DHT22;23904;52.322;10.232;2023-01-30T02:08:17;3.70;99.90
38090;DHT22;23904;52.322;10.232;2023-01-30T02:11:21;3.70;99.90
38090;DHT22;23904;52.322;10.232;2023-01-30T02:13:50;3.70;99.90
38090;DHT22;23904;52.322;10.232;2023-01-30T02:16:16;3.70;99.90
38090;DHT22;23904;52.322;10.232;2023-01-30T02:18:42;3.70;99.90
38090;DHT22;23904;52.322;10.232;2023-01-30T02:21:42;3.70;99.90
38090;DHT22;23904;52.322;10.232;2023-01-30T02:24:55;3.70;99.90
38090;DHT22;23904;52.322;10.232;2023-01-30T02:30:41;3.80;99.90
38090;DHT22;23904;52.322;10.232;2023-01-30T02:43:09;3.80;99.90
38090;DHT22;23904;52.322;10.232;2023-01-30T02:45:53;3.80;99.90
38090;DHT22;23904;52.322;10.232;2023-01-30T02:48:50;3.80;99.90
38090;DHT22;23904;52.322;10.232;2023-01-30T02:51:23;3.80;99.90
38090;DHT22;23904;52.322;10.232;2023-01-30T02:53:53;3.90;99.90
38090;DHT22;23904;52.322;10.232;2023-01-30T02:56:19;3.90;99.90
38090;DHT22;23904;52.322;10.232;2023-01-30T02:58:48;3.90;99.90
38090;DHT22;23904;52.322;10.232;2023-01-30T03:16:16;4.10;99.90
38090;DHT22;23904;52.322;10.232;2023-01-30T03:18:44;4.10;99.90
38090;DHT22;23904;52.322;10.232;2023-01-30T03:21:11;4.20;99.90
38090;DHT22;23904;52.322;10.232;2023-01-30T03:23:37;4.20;99.90
38090;DHT22;23904;52.322;10.232;2023-01-30T03:26:04;4.20;99.90
38090;DHT22;23904;52.322;10.232;2023-01-30T03:28:31;4.20;99.90
38090;DHT22;23904;52.322;10.232;2023-01-30T03:30:57;4.20;99.90
38090;DHT22;23904;52.322;10.232;2023-01-30T03:33:23;4.30;99.90
38090;DHT22;23904;52.322;10.232;2023-01-30T03:35:49;4.30;99.90
38090;DHT22;23904;52.322;10.232;2023-01-30T03:38:16;4.30;99.90
38090;DHT22;23904;52.322;10.232;2023-01-30T03:40:43;4.30;99.90
38090;DHT22;23904;52.322;10.232;2023-01-30T03:43:08;4.40;99.90
38090;DHT22;23904;52.322;10.232;2023-01-30T03:45:34;4.30;99.90
38090;DHT22;23904;52.322;10.232;2023-01-30T03:48:00;4.30;99.90
38090;DHT22;23904;52.322;10.232;2023-01-30T03:50:26;4.30;99.90
38090;DHT22;23904;52.322;10.232;2023-01-30T03:52:53;4.20;99.90
38090;DHT22;23904;52.322;10.232;2023-01-30T03:55:18;4.20;99.90
38090;DHT22;23904;52.322;10.232;2023-01-30T03:57:44;4.10;99.90
38090;DHT22;23904;52.322;10.232;2023-01-30T04:00:10;4.10;99.90
38090;DHT22;23904;52.322;10.232;2023-01-30T04:02:36;4.10;99.90
38090;DHT22;23904;52.322;10.232;2023-01-30T04:05:03;4.10;99.90
38090;DHT22;23904;52.322;10.232;2023-01-30T04:07:29;4.10;99.90
38090;DHT22;23904;52.322;10.232;2023-01-30T04:09:55;4.00;99.90
38090;DHT22;23904;52.322;10.232;2023-01-30T04:12:21;4.10;99.90
38090;DHT22;23904;52.322;10.232;2023-01-30T04:14:47;4.00;99.90
38090;DHT22;23904;52.322;10.232;2023-01-30T04:17:12;4.00;99.90
38090;DHT22;23904;52.322;10.232;2023-01-30T04:19:38;4.10;99.90
38090;DHT22;23904;52.322;10.232;2023-01-30T04:22:05;4.10;99.90
38090;DHT22;23904;52.322;10.232;2023-01-30T04:24:30;4.10;99.90
38090;DHT22;23904;52.322;10.232;2023-01-30T04:26:56;4.00;99.90
38090;DHT22;23904;52.322;10.232;2023-01-30T04:29:23;4.10;99.90
38090;DHT22;23904;52.322;10.232;2023-01-30T04:31:48;4.10;99.90
38090;DHT22;23904;52.322;10.232;2023-01-30T04:34:14;4.10;99.90
38090;DHT22;23904;52.322;10.232;2023-01-30T04:36:39;4.10;99.90
38090;DHT22;23904;52.322;10.232;2023-01-30T04:39:07;4.10;99.90
38090;DHT22;23904;52.322;10.232;2023-01-30T04:41:36;4.10;99.90
38090;DHT22;23904;52.322;10.232;2023-01-30T04:44:01;4.10;99.90
38090;DHT22;23904;52.322;10.232;2023-01-30T04:46:27;4.10;99.90
38090;DHT22;23904;52.322;10.232;2023-01-30T04:48:53;4.10;99.90
38090;DHT22;23904;52.322;10.232;2023-01-30T04:51:18;4.10;99.90
38090;DHT22;23904;52.322;10.232;2023-01-30T04:53:44;4.20;99.90
38090;DHT22;23904;52.322;10.232;2023-01-30T04:56:10;4.10;99.90
38090;DHT22;23904;52.322;10.232;2023-01-30T04:58:36;4.20;99.90
38090;DHT22;23904;52.322;10.232;2023-01-30T05:03:52;4.20;99.90
38090;DHT22;23904;52.322;10.232;2023-01-30T05:06:19;4.20;99.90
38090;DHT22;23904;52.322;10.232;2023-01-30T05:08:53;4.20;99.90
38090;DHT22;23904;52.322;10.232;2023-01-30T05:11:21;4.20;99.90
38090;DHT22;23904;52.322;10.232;2023-01-30T05:13:48;4.20;99.90
38090;DHT22;23904;52.322;10.232;2023-01-30T05:16:15;4.20;99.90
38090;DHT22;23904;52.322;10.232;2023-01-30T05:18:41;4.20;99.90
38090;DHT22;23904;52.322;10.232;2023-01-30T05:21:26;4.30;99.90
38090;DHT22;23904;52.322;10.232;2023-01-30T05:23:53;4.30;99.90
38090;DHT22;23904;52.322;10.232;2023-01-30T05:26:21;4.30;99.90
38090;DHT22;23904;52.322;10.232;2023-01-30T05:28:51;4.30;99.90
38090;DHT22;23904;52.322;10.232;2023-01-30T05:31:21;4.30;99.90
38090;DHT22;23904;52.322;10.232;2023-01-30T05:33:48;4.30;99.90
38090;DHT22;23904;52.322;10.232;2023-01-30T05:36:16;4.30;99.90
38090;DHT22;23904;52.322;10.232;2023-01-30T05:38:43;4.40;99.90
38090;DHT22;23904;52.322;10.232;2023-01-30T05:41:10;4.40;99.90
38090;DHT22;23904;52.322;10.232;2023-01-30T05:43:37;4.50;99.90
38090;DHT22;23904;52.322;10.232;2023-01-30T05:46:04;4.50;99.90
38090;DHT22;23904;52.322;10.232;2023-01-30T05:48:31;4.60;99.90
38090;DHT22;23904;52.322;10.232;2023-01-30T05:50:58;4.60;99.90
38090;DHT22;23904;52.322;10.232;2023-01-30T05:53:26;4.60;99.90
38090;DHT22;23904;52.322;10.232;2023-01-30T05:55:58;4.60;99.90
38090;DHT22;23904;52.322;10.232;2023-01-30T05:58:26;4.60;99.90
38090;DHT22;23904;52.322;10.232;2023-01-30T06:00:52;4.70;99.90
38090;DHT22;23904;52.322;10.232;2023-01-30T06:03:18;4.70;99.90
38090;DHT22;23904;52.322;10.232;2023-01-30T06:05:44;4.70;99.90
38090;DHT22;23904;52.322;10.232;2023-01-30T06:08:10;4.80;99.90
38090;DHT22;23904;52.322;10.232;2023-01-30T06:10:36;4.80;99.90
38090;DHT22;23904;52.322;10.232;2023-01-30T06:13:02;4.80;99.90
38090;DHT22;23904;52.322;10.232;2023-01-30T06:15:28;4.80;99.90
38090;DHT22;23904;52.322;10.232;2023-01-30T06:17:54;4.80;99.90
38090;DHT22;23904;52.322;10.232;2023-01-30T06:20:19;4.90;99.90
38090;DHT22;23904;52.322;10.232;2023-01-30T06:22:47;4.90;99.90
38090;DHT22;23904;52.322;10.232;2023-01-30T06:25:13;4.90;99.90
38090;DHT22;23904;52.322;10.232;2023-01-30T06:27:40;4.90;99.90
38090;DHT22;23904;52.322;10.232;2023-01-30T06:30:08;4.90;99.90
38090;DHT22;23904;52.322;10.232;2023-01-30T06:32:34;4.90;99.90
38090;DHT22;23904;52.322;10.232;2023-01-30T06:34:59;4.90;99.90
38090;DHT22;23904;52.322;10.232;2023-01-30T06:37:25;4.90;99.90
38090;DHT22;23904;52.322;10.232;2023-01-30T06:39:51;4.90;99.90
38090;DHT22;23904;52.322;10.232;2023-01-30T06:42:16;4.90;99.90
38090;DHT22;23904;52.322;10.232;2023-01-30T06:44:42;5.00;99.90
38090;DHT22;23904;52.322;10.232;2023-01-30T06:47:07;5.10;99.90
38090;DHT22;23904;52.322;10.232;2023-01-30T06:49:33;5.10;99.90
38090;DHT22;23904;52.322;10.232;2023-01-30T06:51:59;5.10;99.90
38090;DHT22;23904;52.322;10.232;2023-01-30T06:54:24;5.10;99.90
38090;DHT22;23904;52.322;10.232;2023-01-30T06:56:50;5.00;99.90
38090;DHT22;23904;52.322;10.232;2023-01-30T06:59:15;5.10;99.90
38090;DHT22;23904;52.322;10.232;2023-01-30T07:01:41;5.10;99.90
38090;DHT22;23904;52.322;10.232;2023-01-30T07:04:07;5.10;99.90
38090;DHT22;23904;52.322;10.232;2023-01-30T07:06:33;5.10;99.90
38090;DHT22;23904;52.322;10.232;2023-01-30T07:08:58;5.10;99.90
38090;DHT22;23904;52.322;10.232;2023-01-30T07:11:24;5.10;99.90
38090;DHT22;23904;52.322;10.232;2023-01-30T07:13:50;5.10;99.90
38090;DHT22;23904;52.322;10.232;2023-01-30T07:16:16;5.10;99.90
38090;DHT22;23904;52.322;10.232;2023-01-30T07:18:42;5.20;99.90
38090;DHT22;23904;52.322;10.232;2023-01-30T07:21:07;5.20;99.90
38090;DHT22;23904;52.322;10.232;2023-01-30T07:23:33;5.20;99.90
38090;DHT22;23904;52.322;10.232;2023-01-30T07:26:02;5.20;99.90
38090;DHT22;23904;52.322;10.232;2023-01-30T07:28:29;5.20;99.90
38090;DHT22;23904;52.322;10.232;2023-01-30T07:30:58;5.20;99.90
38090;DHT22;23904;52.322;10.232;2023-01-30T07:33:25;5.20;99.90
38090;DHT22;23904;52.322;10.232;2023-01-30T07:35:50;5.20;99.90
38090;DHT22;23904;52.322;10.232;2023-01-30T07:38:16;5.20;99.90
38090;DHT22;23904;52.322;10.232;2023-01-30T07:40:41;5.20;99.90
38090;DHT22;23904;52.322;10.232;2023-01-30T07:43:10;5.20;99.90
38090;DHT22;23904;52.322;10.232;2023-01-30T07:48:09;5.20;99.90
38090;DHT22;23904;52.322;10.232;2023-01-30T07:54:17;5.20;99.90
38090;DHT22;23904;52.322;10.232;2023-01-30T07:56:43;5.20;99.90
38090;DHT22;23904;52.322;10.232;2023-01-30T07:59:10;5.10;99.90
38090;DHT22;23904;52.322;10.232;2023-01-30T08:01:36;5.20;99.90
38090;DHT22;23904;52.322;10.232;2023-01-30T08:04:02;5.20;99.90
38090;DHT22;23904;52.322;10.232;2023-01-30T08:06:28;5.20;99.90
38090;DHT22;23904;52.322;10.232;2023-01-30T08:08:53;5.20;99.90
38090;DHT22;23904;52.322;10.232;2023-01-30T08:11:19;5.30;99.90
38090;DHT22;23904;52.322;10.232;2023-01-30T08:13:44;5.30;99.90
38090;DHT22;23904;52.322;10.232;2023-01-30T08:16:11;5.40;99.90
38090;DHT22;23904;52.322;10.232;2023-01-30T08:18:37;5.50;99.90
38090;DHT22;23904;52.322;10.232;2023-01-30T08:21:04;5.50;99.90
38090;DHT22;23904;52.322;10.232;2023-01-30T08:23:31;5.50;99.90
38090;DHT22;23904;52.322;10.232;2023-01-30T08:25:59;5.50;99.90
38090;DHT22;23904;52.322;10.232;2023-01-30T08:28:27;5.50;99.90
38090;DHT22;23904;52.322;10.232;2023-01-30T08:30:54;5.60;99.90
38090;DHT22;23904;52.322;10.232;2023-01-30T08:33:21;5.60;99.90
38090;DHT22;23904;52.322;10.232;2023-01-30T08:35:47;5.60;99.90
38090;DHT22;23904;52.322;10.232;2023-01-30T08:38:13;5.60;99.90
38090;DHT22;23904;52.322;10.232;2023-01-30T08:40:39;5.60;99.90
38090;DHT22;23904;52.322;10.232;2023-01-30T08:43:05;5.60;99.90
38090;DHT22;23904;52.322;10.232;2023-01-30T08:45:31;5.70;99.90
38090;DHT22;23904;52.322;10.232;2023-01-30T08:47:59;5.70;99.90
38090;DHT22;23904;52.322;10.232;2023-01-30T08:50:25;5.80;99.90
38090;DHT22;23904;52.322;10.232;2023-01-30T08:52:51;5.80;99.90
38090;DHT22;23904;52.322;10.232;2023-01-30T08:55:17;5.80;99.90
38090;DHT22;23904;52.322;10.232;2023-01-30T08:57:43;5.90;99.90
38090;DHT22;23904;52.322;10.232;2023-01-30T09:00:09;6.00;99.90
38090;DHT22;23904;52.322;10.232;2023-01-30T09:02:35;6.00;99.90
38090;DHT22;23904;52.322;10.232;2023-01-30T09:05:01;6.00;99.90
38090;DHT22;23904;52.322;10.232;2023-01-30T09:07:27;6.10;99.90
38090;DHT22;23904;52.322;10.232;2023-01-30T09:09:53;6.20;99.90
38090;DHT22;23904;52.322;10.232;2023-01-30T09:12:19;6.30;99.90
38090;DHT22;23904;52.322;10.232;2023-01-30T09:14:45;6.30;99.90
38090;DHT22;23904;52.322;10.232;2023-01-30T09:17:11;6.30;99.90
38090;DHT22;23904;52.322;10.232;2023-01-30T09:19:37;6.20;99.90
38090;DHT22;23904;52.322;10.232;2023-01-30T09:22:02;6.20;99.90
38090;DHT22;23904;52.322;10.232;2023-01-30T09:24:28;6.20;99.90
38090;DHT22;23904;52.322;10.232;2023-01-30T09:26:56;6.10;99.90
38090;DHT22;23904;52.322;10.232;2023-01-30T09:29:24;6.10;99.90
38090;DHT22;23904;52.322;10.232;2023-01-30T09:31:50;6.10;99.90
38090;DHT22;23904;52.322;10.232;2023-01-30T09:34:16;6.10;99.90
38090;DHT22;23904;52.322;10.232;2023-01-30T09:36:41;6.20;99.90
38090;DHT22;23904;52.322;10.232;2023-01-30T09:39:07;6.30;99.90
38090;DHT22;23904;52.322;10.232;2023-01-30T09:44:54;6.30;99.90
38090;DHT22;23904;52.322;10.232;2023-01-30T09:56:22;7.90;99.90
38090;DHT22;23904;52.322;10.232;2023-01-30T09:58:53;7.60;99.90
38090;DHT22;23904;52.322;10.232;2023-01-30T10:04:36;7.00;99.90
38090;DHT22;23904;52.322;10.232;2023-01-30T10:09:49;6.90;99.90
38090;DHT22;23904;52.322;10.232;2023-01-30T10:15:34;6.90;99.90
38090;DHT22;23904;52.322;10.232;2023-01-30T10:18:29;6.90;99.90
38090;DHT22;23904;52.322;10.232;2023-01-30T10:21:16;7.20;99.90
38090;DHT22;23904;52.322;10.232;2023-01-30T10:24:27;8.00;99.90
38090;DHT22;23904;52.322;10.232;2023-01-30T10:27:07;8.10;99.90
38090;DHT22;23904;52.322;10.232;2023-01-30T10:29:37;8.20;99.90
38090;DHT22;23904;52.322;10.232;2023-01-30T10:32:17;8.10;99.90
38090;DHT22;23904;52.322;10.232;2023-01-30T10:34:53;7.90;99.90
38090;DHT22;23904;52.322;10.232;2023-01-30T10:40:04;7.50;99.90
38090;DHT22;23904;52.322;10.232;2023-01-30T10:45:49;7.10;99.90
38090;DHT22;23904;52.322;10.232;2023-01-30T10:48:58;7.20;99.90
38090;DHT22;23904;52.322;10.232;2023-01-30T10:51:54;7.40;99.90
38090;DHT22;23904;52.322;10.232;2023-01-30T10:57:22;7.90;99.90
38090;DHT22;23904;52.322;10.232;2023-01-30T11:00:19;7.80;99.90
38090;DHT22;23904;52.322;10.232;2023-01-30T11:06:23;7.90;99.90
38090;DHT22;23904;52.322;10.232;2023-01-30T11:08:51;8.10;99.90
38090;DHT22;23904;52.322;10.232;2023-01-30T11:11:52;8.10;99.90
38090;DHT22;23904;52.322;10.232;2023-01-30T11:14:19;7.90;99.90
38090;DHT22;23904;52.322;10.232;2023-01-30T11:16:53;7.70;99.90
38090;DHT22;23904;52.322;10.232;2023-01-30T11:19:23;7.70;99.90
38090;DHT22;23904;52.322;10.232;2023-01-30T11:21:54;7.80;99.90
38090;DHT22;23904;52.322;10.232;2023-01-30T11:24:30;7.90;99.90
38090;DHT22;23904;52.322;10.232;2023-01-30T11:27:26;7.90;99.90
38090;DHT22;23904;52.322;10.232;2023-01-30T11:30:17;7.80;99.90
38090;DHT22;23904;52.322;10.232;2023-01-30T11:32:46;7.60;99.90
38090;DHT22;23904;52.322;10.232;2023-01-30T11:37:43;7.70;99.90
38090;DHT22;23904;52.322;10.232;2023-01-30T11:40:24;7.80;99.90
38090;DHT22;23904;52.322;10.232;2023-01-30T11:43:05;8.00;99.90
38090;DHT22;23904;52.322;10.232;2023-01-30T11:45:38;8.00;99.90
38090;DHT22;23904;52.322;10.232;2023-01-30T11:48:18;7.80;99.90
38090;DHT22;23904;52.322;10.232;2023-01-30T11:50:47;7.70;99.90
38090;DHT22;23904;52.322;10.232;2023-01-30T11:53:32;7.50;99.90
38090;DHT22;23904;52.322;10.232;2023-01-30T11:56:24;7.20;99.90
38090;DHT22;23904;52.322;10.232;2023-01-30T11:58:58;7.00;99.90
38090;DHT22;23904;52.322;10.232;2023-01-30T12:01:30;6.70;99.90
38090;DHT22;23904;52.322;10.232;2023-01-30T12:03:58;6.60;99.90
38090;DHT22;23904;52.322;10.232;2023-01-30T12:06:29;6.40;99.90
38090;DHT22;23904;52.322;10.232;2023-01-30T12:08:57;6.50;99.90
38090;DHT22;23904;52.322;10.232;2023-01-30T12:11:26;6.60;99.90
38090;DHT22;23904;52.322;10.232;2023-01-30T12:14:20;6.70;99.90
38090;DHT22;23904;52.322;10.232;2023-01-30T12:17:21;6.70;99.90
38090;DHT22;23904;52.322;10.232;2023-01-30T12:20:04;6.60;99.90
38090;DHT22;23904;52.322;10.232;2023-01-30T12:22:44;6.60;99.90
38090;DHT22;23904;52.322;10.232;2023-01-30T12:25:25;6.50;99.90
38090;DHT22;23904;52.322;10.232;2023-01-30T12:28:02;6.40;99.90
38090;DHT22;23904;52.322;10.232;2023-01-30T12:30:42;6.30;99.90
38090;DHT22;23904;52.322;10.232;2023-01-30T12:33:21;6.20;99.90
38090;DHT22;23904;52.322;10.232;2023-01-30T12:38:44;6.20;99.90
38090;DHT22;23904;52.322;10.232;2023-01-30T12:47:38;5.90;99.90
38090;DHT22;23904;52.322;10.232;2023-01-30T12:50:45;5.70;99.90
38090;DHT22;23904;52.322;10.232;2023-01-30T12:53:22;5.70;99.90
38090;DHT22;23904;52.322;10.232;2023-01-30T12:59:56;6.30;99.90
38090;DHT22;23904;52.322;10.232;2023-01-30T13:02:51;6.30;99.90
38090;DHT22;23904;52.322;10.232;2023-01-30T13:05:34;6.00;99.90
38090;DHT22;23904;52.322;10.232;2023-01-30T13:10:51;5.70;99.90
38090;DHT22;23904;52.322;10.232;2023-01-30T13:13:32;5.90;99.90
38090;DHT22;23904;52.322;10.232;2023-01-30T13:19:08;6.70;99.90
38090;DHT22;23904;52.322;10.232;2023-01-30T13:22:07;7.30;99.90
38090;DHT22;23904;52.322;10.232;2023-01-30T13:27:55;7.80;99.90
38090;DHT22;23904;52.322;10.232;2023-01-30T13:30:24;8.20;99.90
38090;DHT22;23904;52.322;10.232;2023-01-30T13:32:55;8.60;99.90
38090;DHT22;23904;52.322;10.232;2023-01-30T13:35:29;8.70;99.90
38090;DHT22;23904;52.322;10.232;2023-01-30T13:38:02;8.50;99.90
38090;DHT22;23904;52.322;10.232;2023-01-30T13:40:37;8.60;99.90
38090;DHT22;23904;52.322;10.232;2023-01-30T13:43:22;9.20;99.90
38090;DHT22;23904;52.322;10.232;2023-01-30T13:45:53;9.50;99.90
38090;DHT22;23904;52.322;10.232;2023-01-30T13:51:26;9.40;99.90
38090;DHT22;23904;52.322;10.232;2023-01-30T14:02:34;9.50;99.90
38090;DHT22;23904;52.322;10.232;2023-01-30T14:04:59;8.70;99.90
38090;DHT22;23904;52.322;10.232;2023-01-30T14:07:40;7.90;99.90
38090;DHT22;23904;52.322;10.232;2023-01-30T14:10:11;7.40;99.90
38090;DHT22;23904;52.322;10.232;2023-01-30T14:12:52;7.00;99.90
38090;DHT22;23904;52.322;10.232;2023-01-30T14:15:26;6.90;99.90
38090;DHT22;23904;52.322;10.232;2023-01-30T14:20:24;7.00;99.90
38090;DHT22;23904;52.322;10.232;2023-01-30T14:22:58;6.90;99.90
38090;DHT22;23904;52.322;10.232;2023-01-30T14:25:34;6.80;99.90
38090;DHT22;23904;52.322;10.232;2023-01-30T14:30:37;6.50;99.90
38090;DHT22;23904;52.322;10.232;2023-01-30T14:38:22;6.30;99.90
38090;DHT22;23904;52.322;10.232;2023-01-30T14:41:16;6.20;99.90
38090;DHT22;23904;52.322;10.232;2023-01-30T14:43:51;6.20;99.90
38090;DHT22;23904;52.322;10.232;2023-01-30T14:56:44;6.20;99.90
38090;DHT22;23904;52.322;10.232;2023-01-30T15:04:42;6.20;99.90
38090;DHT22;23904;52.322;10.232;2023-01-30T15:07:15;6.20;99.90
38090;DHT22;23904;52.322;10.232;2023-01-30T15:10:02;6.20;99.90
38090;DHT22;23904;52.322;10.232;2023-01-30T15:12:41;6.20;99.90
38090;DHT22;23904;52.322;10.232;2023-01-30T15:27:14;6.20;99.90
38090;DHT22;23904;52.322;10.232;2023-01-30T15:33:14;6.20;99.90
38090;DHT22;23904;52.322;10.232;2023-01-30T15:35:44;6.20;99.90
38090;DHT22;23904;52.322;10.232;2023-01-30T15:41:00;6.30;99.90
38090;DHT22;23904;52.322;10.232;2023-01-30T15:43:46;6.20;99.90
38090;DHT22;23904;52.322;10.232;2023-01-30T15:46:56;6.20;99.90
38090;DHT22;23904;52.322;10.232;2023-01-30T15:52:16;6.10;99.90
38090;DHT22;23904;52.322;10.232;2023-01-30T15:54:58;6.00;99.90
38090;DHT22;23904;52.322;10.232;2023-01-30T15:57:30;5.90;99.90
38090;DHT22;23904;52.322;10.232;2023-01-30T15:59:58;5.90;99.90
38090;DHT22;23904;52.322;10.232;2023-01-30T16:02:32;5.90;99.90
38090;DHT22;23904;52.322;10.232;2023-01-30T16:05:18;5.90;99.90
38090;DHT22;23904;52.322;10.232;2023-01-30T16:07:47;5.80;99.90
38090;DHT22;23904;52.322;10.232;2023-01-30T16:10:25;5.80;99.90
38090;DHT22;23904;52.322;10.232;2023-01-30T16:12:55;5.70;99.90
38090;DHT22;23904;52.322;10.232;2023-01-30T16:15:26;5.70;99.90
38090;DHT22;23904;52.322;10.232;2023-01-30T16:18:09;5.70;99.90
38090;DHT22;23904;52.322;10.232;2023-01-30T16:20:46;5.60;99.90
38090;DHT22;23904;52.322;10.232;2023-01-30T16:23:23;5.70;99.90
38090;DHT22;23904;52.322;10.232;2023-01-30T16:25:52;5.70;99.90
38090;DHT22;23904;52.322;10.232;2023-01-30T16:28:20;5.70;99.90
38090;DHT22;23904;52.322;10.232;2023-01-30T16:30:47;5.70;99.90
38090;DHT22;23904;52.322;10.232;2023-01-30T16:33:15;5.70;99.90
38090;DHT22;23904;52.322;10.232;2023-01-30T16:35:44;5.80;99.90
38090;DHT22;23904;52.322;10.232;2023-01-30T16:38:41;5.80;99.90
38090;DHT22;23904;52.322;10.232;2023-01-30T16:41:33;5.80;99.90
38090;DHT22;23904;52.322;10.232;2023-01-30T16:44:10;5.90;99.90
38090;DHT22;23904;52.322;10.232;2023-01-30T16:47:00;5.90;99.90
38090;DHT22;23904;52.322;10.232;2023-01-30T16:52:12;5.80;99.90
38090;DHT22;23904;52.322;10.232;2023-01-30T16:54:56;5.70;99.90
38090;DHT22;23904;52.322;10.232;2023-01-30T16:57:28;5.70;99.90
38090;DHT22;23904;52.322;10.232;2023-01-30T17:00:31;5.60;99.90
38090;DHT22;23904;52.322;10.232;2023-01-30T17:03:01;5.50;99.90
38090;DHT22;23904;52.322;10.232;2023-01-30T17:05:39;5.50;99.90
38090;DHT22;23904;52.322;10.232;2023-01-30T17:10:55;5.40;99.90
38090;DHT22;23904;52.322;10.232;2023-01-30T17:13:41;5.30;99.90
38090;DHT22;23904;52.322;10.232;2023-01-30T17:16:26;5.30;99.90
38090;DHT22;23904;52.322;10.232;2023-01-30T17:18:56;5.20;99.90
38090;DHT22;23904;52.322;10.232;2023-01-30T17:21:25;5.20;99.90
38090;DHT22;23904;52.322;10.232;2023-01-30T17:24:00;5.20;99.90
38090;DHT22;23904;52.322;10.232;2023-01-30T17:26:28;5.20;99.90
38090;DHT22;23904;52.322;10.232;2023-01-30T17:28:54;5.10;99.90
38090;DHT22;23904;52.322;10.232;2023-01-30T17:31:20;5.10;99.90
38090;DHT22;23904;52.322;10.232;2023-01-30T17:33:46;5.10;99.90
38090;DHT22;23904;52.322;10.232;2023-01-30T17:36:19;5.10;99.90
38090;DHT22;23904;52.322;10.232;2023-01-30T17:38:46;5.10;99.90
38090;DHT22;23904;52.322;10.232;2023-01-30T17:41:20;5.10;99.90
38090;DHT22;23904;52.322;10.232;2023-01-30T17:43:47;5.20;99.90
38090;DHT22;23904;52.322;10.232;2023-01-30T17:46:13;5.20;99.90
38090;DHT22;23904;52.322;10.232;2023-01-30T17:48:39;5.20;99.90
38090;DHT22;23904;52.322;10.232;2023-01-30T17:51:06;5.20;99.90
38090;DHT22;23904;52.322;10.232;2023-01-30T17:53:32;5.10;99.90
38090;DHT22;23904;52.322;10.232;2023-01-30T17:55:58;5.10;99.90
38090;DHT22;23904;52.322;10.232;2023-01-30T17:58:24;5.10;99.90
38090;DHT22;23904;52.322;10.232;2023-01-30T18:00:50;5.00;99.90
38090;DHT22;23904;52.322;10.232;2023-01-30T18:03:17;5.00;99.90
38090;DHT22;23904;52.322;10.232;2023-01-30T18:05:43;5.10;99.90
38090;DHT22;23904;52.322;10.232;2023-01-30T18:08:09;5.10;99.90
38090;DHT22;23904;52.322;10.232;2023-01-30T18:10:34;5.10;99.90
38090;DHT22;23904;52.322;10.232;2023-01-30T18:13:00;5.10;99.90
38090;DHT22;23904;52.322;10.232;2023-01-30T18:15:26;5.20;99.90
38090;DHT22;23904;52.322;10.232;2023-01-30T18:17:52;5.10;99.90
38090;DHT22;23904;52.322;10.232;2023-01-30T18:20:20;5.20;99.90
38090;DHT22;23904;52.322;10.232;2023-01-30T18:22:46;5.30;99.90
38090;DHT22;23904;52.322;10.232;2023-01-30T18:25:13;5.30;99.90
38090;DHT22;23904;52.322;10.232;2023-01-30T18:27:41;5.40;99.90
38090;DHT22;23904;52.322;10.232;2023-01-30T18:30:12;5.40;99.90
38090;DHT22;23904;52.322;10.232;2023-01-30T18:32:39;5.50;99.90
38090;DHT22;23904;52.322;10.232;2023-01-30T18:35:05;5.50;99.90
38090;DHT22;23904;52.322;10.232;2023-01-30T18:37:31;5.50;99.90